createdAt,value
2023-10-29T00:01:17.048Z,99691.16
2023-10-29T00:04:21.608Z,99693.06
2023-10-29T00:07:26.219Z,99698.09
2023-10-29T00:10:31.037Z,99699.56
2023-10-29T00:13:36.030Z,99686.13
2023-10-29T00:16:40.914Z,99700.00
2023-10-29T00:19:45.744Z,99696.59
2023-10-29T00:22:50.067Z,99688.53
2023-10-29T00:25:54.981Z,99684.88
2023-10-29T00:28:59.366Z,99671.84
2023-10-29T00:32:03.864Z,99647.28
2023-10-29T00:35:08.747Z,99630.19
2023-10-29T00:38:12.961Z,99612.31
2023-10-29T00:41:18.058Z,99610.97
2023-10-29T00:44:22.655Z,99611.09
2023-10-29T00:47:27.087Z,99609.28
2023-10-29T00:50:31.970Z,99611.81
2023-10-29T00:53:36.782Z,99606.56
2023-10-29T00:56:41.249Z,99596.06
2023-10-29T00:59:46.317Z,99581.16
2023-10-29T01:02:50.708Z,99559.44
2023-10-29T01:05:54.936Z,99542.97
2023-10-29T01:08:59.511Z,99536.84
2023-10-29T01:12:04.111Z,99545.69
2023-10-29T01:15:09.606Z,99550.06
2023-10-29T01:18:14.176Z,99562.25
2023-10-29T01:21:18.434Z,99585.16
2023-10-29T01:24:22.891Z,99568.44
2023-10-29T01:27:28.119Z,99560.38
2023-10-29T01:30:32.900Z,99556.59
2023-10-29T01:33:40.269Z,99549.66
2023-10-29T01:36:44.460Z,99577.59
2023-10-29T01:39:48.571Z,99571.41
2023-10-29T01:42:52.575Z,99552.81
2023-10-29T01:45:57.069Z,99551.97
2023-10-29T01:49:02.519Z,99557.84
2023-10-29T01:52:07.040Z,99560.38
2023-10-29T01:55:11.201Z,99543.78
2023-10-29T01:58:15.676Z,99548.75
2023-10-29T02:01:20.287Z,99534.78
2023-10-29T02:04:27.659Z,99533.84
2023-10-29T02:07:33.528Z,99522.41
2023-10-29T02:10:38.205Z,99527.44
2023-10-29T02:13:42.725Z,99527.44
2023-10-29T02:16:48.250Z,99523.84
2023-10-29T02:19:53.004Z,99516.84
2023-10-29T02:22:57.137Z,99513.13
2023-10-29T02:26:01.912Z,99500.75
2023-10-29T02:29:06.304Z,99495.50
2023-10-29T02:32:11.152Z,99489.31
2023-10-29T02:35:15.573Z,99496.97
2023-10-29T02:38:20.278Z,99502.00
2023-10-29T02:41:25.367Z,99497.78
2023-10-29T02:44:29.959Z,99508.94
2023-10-29T02:47:34.178Z,99507.97
2023-10-29T02:50:41.911Z,99501.78
2023-10-29T02:53:45.988Z,99486.97
2023-10-29T02:56:50.465Z,99485.19
2023-10-29T02:59:55.436Z,99477.19
2023-10-29T03:02:59.763Z,99475.31
2023-10-29T03:06:09.187Z,99478.66
2023-10-29T03:09:14.300Z,99480.34
2023-10-29T03:12:18.678Z,99465.44
2023-10-29T03:15:22.908Z,99469.00
2023-10-29T03:18:27.586Z,99468.06
2023-10-29T03:21:31.993Z,99455.75
2023-10-29T03:24:36.715Z,99449.69
2023-10-29T03:27:41.280Z,99448.47
2023-10-29T03:30:45.631Z,99429.28
2023-10-29T03:33:49.592Z,99430.09
2023-10-29T03:36:54.015Z,99436.22
2023-10-29T03:39:59.789Z,99433.59
2023-10-29T03:43:04.455Z,99435.47
2023-10-29T03:46:11.731Z,99432.84
2023-10-29T03:49:17.997Z,99443.13
2023-10-29T03:52:26.041Z,99436.22
2023-10-29T03:55:32.070Z,99437.97
2023-10-29T03:58:37.854Z,99431.91
2023-10-29T04:01:42.238Z,99429.28
2023-10-29T04:04:57.458Z,99430.34
2023-10-29T04:08:10.483Z,99424.97
2023-10-29T04:11:14.653Z,99423.81
2023-10-29T04:14:19.396Z,99425.28
2023-10-29T04:17:24.151Z,99434.81
2023-10-29T04:20:28.750Z,99431.56
2023-10-29T04:23:33.571Z,99432.19
2023-10-29T04:26:38.530Z,99430.53
2023-10-29T04:29:43.246Z,99433.16
2023-10-29T04:32:47.923Z,99438.16
2023-10-29T04:35:52.492Z,99441.63
2023-10-29T04:38:56.649Z,99447.50
2023-10-29T04:42:02.446Z,99442.25
2023-10-29T04:45:07.626Z,99442.84
2023-10-29T04:48:13.767Z,99431.06
2023-10-29T04:51:21.477Z,99432.00
2023-10-29T04:54:25.689Z,99437.38
2023-10-29T04:57:30.410Z,99426.53
2023-10-29T05:00:34.768Z,99421.78
2023-10-29T05:03:39.494Z,99408.53
2023-10-29T05:06:43.854Z,99415.09
2023-10-29T05:09:48.375Z,99416.28
2023-10-29T05:12:52.894Z,99411.25
2023-10-29T05:15:57.430Z,99395.06
2023-10-29T05:19:03.954Z,99389.09
2023-10-29T05:22:08.303Z,99391.22
2023-10-29T05:25:12.451Z,99394.38
2023-10-29T05:28:17.857Z,99384.09
2023-10-29T05:31:22.412Z,99382.78
2023-10-29T05:34:26.628Z,99400.69
2023-10-29T05:37:30.811Z,99400.56
2023-10-29T05:40:35.299Z,99388.63
2023-10-29T05:43:39.565Z,99393.06
2023-10-29T05:46:43.986Z,99384.22
2023-10-29T05:49:48.486Z,99376.00
2023-10-29T05:52:52.783Z,99384.59
2023-10-29T05:55:57.829Z,99379.34
2023-10-29T05:59:02.410Z,99367.84
2023-10-29T06:02:07.218Z,99382.09
2023-10-29T06:05:11.549Z,99379.56
2023-10-29T06:08:15.930Z,99376.84
2023-10-29T06:11:20.189Z,99386.25
2023-10-29T06:14:24.717Z,99385.66
2023-10-29T06:17:30.780Z,99387.94
2023-10-29T06:20:35.546Z,99374.34
2023-10-29T06:23:39.680Z,99382.47
2023-10-29T06:26:44.540Z,99380.44
2023-10-29T06:29:48.861Z,99388.69
2023-10-29T06:32:53.144Z,99393.72
2023-10-29T06:35:59.063Z,99390.13
2023-10-29T06:39:04.026Z,99394.94
2023-10-29T06:42:08.337Z,99395.16
2023-10-29T06:45:13.143Z,99387.97
2023-10-29T06:48:17.729Z,99393.00
2023-10-29T06:51:22.476Z,99389.56
2023-10-29T06:54:27.269Z,99401.38
2023-10-29T06:57:31.648Z,99406.63
2023-10-29T07:00:36.709Z,99409.75
2023-10-29T07:03:43.985Z,99412.94
2023-10-29T07:06:48.834Z,99419.06
2023-10-29T07:09:53.792Z,99427.44
2023-10-29T07:12:58.694Z,99420.25
2023-10-29T07:16:04.329Z,99420.50
2023-10-29T07:19:14.715Z,99431.63
2023-10-29T07:22:19.359Z,99435.81
2023-10-29T07:25:24.248Z,99433.44
2023-10-29T07:28:29.692Z,99447.28
2023-10-29T07:31:34.227Z,99449.56
2023-10-29T07:34:38.255Z,99462.84
2023-10-29T07:37:42.475Z,99474.94
2023-10-29T07:40:47.419Z,99460.72
2023-10-29T07:43:51.622Z,99446.00
2023-10-29T07:46:56.077Z,99469.31
2023-10-29T07:50:00.352Z,99474.16
2023-10-29T07:53:05.818Z,99474.16
2023-10-29T07:56:12.031Z,99468.97
2023-10-29T07:59:17.007Z,99481.06
2023-10-29T08:02:21.590Z,99484.91
2023-10-29T08:05:25.744Z,99492.31
2023-10-29T08:08:29.878Z,99480.34
2023-10-29T08:11:36.917Z,99469.25
2023-10-29T08:14:41.691Z,99475.34
2023-10-29T08:17:46.389Z,99480.81
2023-10-29T08:20:50.984Z,99473.19
2023-10-29T08:23:55.508Z,99466.25
2023-10-29T08:27:01.086Z,99465.16
2023-10-29T08:30:07.513Z,99462.53
2023-10-29T08:33:12.124Z,99443.28
2023-10-29T08:36:17.839Z,99448.06
2023-10-29T08:39:23.032Z,99451.75
2023-10-29T08:42:31.438Z,99453.53
2023-10-29T08:45:42.030Z,99443.97
2023-10-29T08:48:47.115Z,99440.06
2023-10-29T08:51:51.794Z,99433.72
2023-10-29T08:54:56.288Z,99430.72
2023-10-29T08:58:00.363Z,99422.19
2023-10-29T09:01:13.841Z,99394.59
2023-10-29T09:04:18.656Z,99379.00
2023-10-29T09:07:22.929Z,99359.03
2023-10-29T09:10:29.541Z,99327.72
2023-10-29T09:13:33.835Z,99297.16
2023-10-29T09:16:38.585Z,99267.47
2023-10-29T09:19:43.376Z,99233.22
2023-10-29T09:22:47.944Z,99209.00
2023-10-29T09:25:52.830Z,99176.38
2023-10-29T09:28:57.248Z,99164.34
2023-10-29T09:32:02.923Z,99138.81
2023-10-29T09:35:09.083Z,99128.31
2023-10-29T09:38:13.585Z,99126.38
2023-10-29T09:41:21.429Z,99113.09
2023-10-29T09:44:25.888Z,99101.72
2023-10-29T09:47:32.365Z,99089.47
2023-10-29T09:50:36.964Z,99085.38
2023-10-29T09:53:49.105Z,99090.66
2023-10-29T09:56:53.714Z,99107.97
2023-10-29T09:59:59.935Z,99095.03
2023-10-29T10:03:04.601Z,99096.97
2023-10-29T10:06:10.695Z,99096.50
2023-10-29T10:09:15.502Z,99089.69
2023-10-29T10:12:20.609Z,99078.75
2023-10-29T10:15:24.941Z,99064.38
2023-10-29T10:18:29.346Z,99063.44
2023-10-29T10:21:44.818Z,99059.28
2023-10-29T10:24:49.980Z,99060.78
2023-10-29T10:27:57.368Z,99068.13
2023-10-29T10:31:14.420Z,99064.72
2023-10-29T10:34:20.259Z,99060.38
2023-10-29T10:37:26.157Z,99052.72
2023-10-29T10:40:32.545Z,99068.34
2023-10-29T10:43:37.532Z,99065.28
2023-10-29T10:46:49.933Z,99067.25
2023-10-29T10:49:56.892Z,99084.66
2023-10-29T10:53:01.325Z,99085.19
2023-10-29T10:56:09.342Z,99084.03
2023-10-29T10:59:14.241Z,99092.97
2023-10-29T11:02:19.815Z,99090.75
2023-10-29T11:05:31.209Z,99097.25
2023-10-29T11:08:36.744Z,99092.44
2023-10-29T11:11:52.099Z,99095.34
2023-10-29T11:15:22.568Z,99113.56
2023-10-29T11:18:32.138Z,99109.75
2023-10-29T11:21:36.816Z,99106.13
2023-10-29T11:24:41.506Z,99115.13
2023-10-29T11:27:47.454Z,99111.56
2023-10-29T11:31:16.867Z,99100.78
2023-10-29T11:34:21.394Z,99087.00
2023-10-29T11:37:38.911Z,99083.78
2023-10-29T11:40:43.611Z,99089.78
2023-10-29T11:44:08.138Z,99094.69
2023-10-29T11:47:13.343Z,99076.78
2023-10-29T11:50:17.702Z,99090.94
2023-10-29T11:53:27.997Z,99094.56
2023-10-29T11:56:34.306Z,99108.78
2023-10-29T11:59:59.921Z,99114.84
2023-10-29T12:03:04.894Z,99117.94
2023-10-29T12:06:09.484Z,99113.19
2023-10-29T12:09:27.890Z,99112.09
2023-10-29T12:12:32.257Z,99097.66
2023-10-29T12:15:36.753Z,99119.94
2023-10-29T12:18:41.825Z,99123.28
2023-10-29T12:21:53.816Z,99120.09
2023-10-29T12:25:01.376Z,99128.28
2023-10-29T12:28:06.089Z,99116.19
2023-10-29T12:31:27.905Z,99105.88
2023-10-29T12:34:49.765Z,99126.75
2023-10-29T12:37:55.256Z,99122.69
2023-10-29T12:41:18.025Z,99133.81
2023-10-29T12:44:22.679Z,99124.34
2023-10-29T12:47:27.208Z,99134.63
2023-10-29T12:50:47.624Z,99127.66
2023-10-29T12:53:52.162Z,99136.84
2023-10-29T12:57:06.831Z,99137.44
2023-10-29T13:00:13.573Z,99137.06
2023-10-29T13:03:17.907Z,99128.81
2023-10-29T13:06:22.934Z,99124.34
2023-10-29T13:09:29.571Z,99113.19
2023-10-29T13:12:34.550Z,99103.28
2023-10-29T13:15:39.355Z,99101.75
2023-10-29T13:18:43.694Z,99077.59
2023-10-29T13:21:49.781Z,99075.91
2023-10-29T13:24:54.197Z,99071.25
2023-10-29T13:27:59.728Z,99075.00
2023-10-29T13:31:04.238Z,99072.94
2023-10-29T13:34:09.816Z,99078.50
2023-10-29T13:37:14.373Z,99077.13
2023-10-29T13:40:20.121Z,99082.53
2023-10-29T13:43:24.396Z,99081.00
2023-10-29T13:46:28.857Z,99085.06
2023-10-29T13:49:33.281Z,99088.69
2023-10-29T13:52:37.796Z,99103.31
2023-10-29T13:55:42.064Z,99121.09
2023-10-29T13:58:46.438Z,99125.00
2023-10-29T14:01:50.946Z,99117.75
2023-10-29T14:04:55.484Z,99115.41
2023-10-29T14:08:01.339Z,99112.09
2023-10-29T14:11:06.433Z,99108.06
2023-10-29T14:14:10.742Z,99107.09
2023-10-29T14:17:15.150Z,99096.66
2023-10-29T14:20:20.666Z,99102.50
2023-10-29T14:23:25.350Z,99101.28
2023-10-29T14:26:30.341Z,99101.97
2023-10-29T14:29:34.906Z,99090.47
2023-10-29T14:32:40.465Z,99086.56
2023-10-29T14:35:44.712Z,99080.88
2023-10-29T14:38:50.472Z,99097.84
2023-10-29T14:41:54.864Z,99091.72
2023-10-29T14:44:59.565Z,99105.59
2023-10-29T14:48:08.744Z,99107.56
2023-10-29T14:51:13.541Z,99106.31
2023-10-29T14:54:18.347Z,99099.63
2023-10-29T14:57:29.542Z,99099.91
2023-10-29T15:00:35.467Z,99114.25
2023-10-29T15:03:39.758Z,99119.81
2023-10-29T15:06:45.192Z,99127.16
2023-10-29T15:09:49.388Z,99125.75
2023-10-29T15:12:54.134Z,99127.72
2023-10-29T15:15:58.871Z,99129.81
2023-10-29T15:19:06.411Z,99125.22
2023-10-29T15:22:10.817Z,99122.31
2023-10-29T15:25:15.379Z,99122.31
2023-10-29T15:28:19.876Z,99113.97
2023-10-29T15:31:24.076Z,99107.56
2023-10-29T15:34:31.921Z,99122.31
2023-10-29T15:37:38.793Z,99110.88
2023-10-29T15:40:43.617Z,99114.53
2023-10-29T15:43:47.903Z,99113.53
2023-10-29T15:46:52.330Z,99109.50
2023-10-29T15:49:57.687Z,99092.72
2023-10-29T15:53:02.005Z,99084.66
2023-10-29T15:56:10.900Z,99098.84
2023-10-29T15:59:20.716Z,99106.06
2023-10-29T16:02:25.144Z,99105.19
2023-10-29T16:05:30.084Z,99117.97
2023-10-29T16:08:39.929Z,99111.75
2023-10-29T16:11:48.268Z,99112.00
2023-10-29T16:14:53.213Z,99128.09
2023-10-29T16:17:57.491Z,99120.03
2023-10-29T16:21:02.178Z,99120.28
2023-10-29T16:24:07.522Z,99106.41
2023-10-29T16:27:11.735Z,99100.91
2023-10-29T16:30:19.122Z,99101.97
2023-10-29T16:33:23.312Z,99102.22
2023-10-29T16:36:28.029Z,99099.72
2023-10-29T16:39:32.836Z,99089.31
2023-10-29T16:42:37.003Z,99088.06
2023-10-29T16:45:42.347Z,99084.59
2023-10-29T16:48:49.886Z,99098.34
2023-10-29T16:51:54.306Z,99095.97
2023-10-29T16:54:58.842Z,99096.66
2023-10-29T16:58:04.243Z,99095.56
2023-10-29T17:01:11.076Z,99095.69
2023-10-29T17:04:15.525Z,99099.16
2023-10-29T17:07:22.280Z,99101.09
2023-10-29T17:10:26.310Z,99099.41
2023-10-29T17:13:32.554Z,99104.00
2023-10-29T17:16:36.943Z,99101.38
2023-10-29T17:19:43.273Z,99101.38
2023-10-29T17:22:48.234Z,99103.31
2023-10-29T17:25:53.079Z,99093.47
2023-10-29T17:29:00.062Z,99094.69
2023-10-29T17:32:06.621Z,99099.94
2023-10-29T17:35:10.818Z,99113.41
2023-10-29T17:38:15.355Z,99096.34
2023-10-29T17:41:22.975Z,99093.03
2023-10-29T17:44:29.192Z,99083.97
2023-10-29T17:47:33.528Z,99086.19
2023-10-29T17:50:37.982Z,99094.09
2023-10-29T17:53:46.754Z,99092.88
2023-10-29T17:56:51.664Z,99148.81
2023-10-29T17:59:56.052Z,99185.09
2023-10-29T18:03:00.692Z,99219.78
2023-10-29T18:06:31.877Z,99243.84
2023-10-29T18:09:37.166Z,99259.63
2023-10-29T18:12:41.261Z,99267.66
2023-10-29T18:15:46.754Z,99279.53
2023-10-29T18:18:52.824Z,99286.38
2023-10-29T18:21:59.319Z,99273.66
2023-10-29T18:25:04.608Z,99249.16
2023-10-29T18:28:09.231Z,99278.94
2023-10-29T18:31:15.107Z,99301.19
2023-10-29T18:34:19.311Z,99308.63
2023-10-29T18:37:25.638Z,99307.28
2023-10-29T18:40:31.525Z,99309.34
2023-10-29T18:43:36.062Z,99312.22
2023-10-29T18:46:40.573Z,99314.47
2023-10-29T18:49:45.595Z,99319.63
2023-10-29T18:52:49.883Z,99327.97
2023-10-29T18:55:53.909Z,99334.19
2023-10-29T18:59:01.355Z,99326.44
2023-10-29T19:02:06.092Z,99336.09
2023-10-29T19:05:12.742Z,99340.53
2023-10-29T19:08:19.092Z,99337.31
2023-10-29T19:11:24.946Z,99343.28
2023-10-29T19:14:32.552Z,99346.63
2023-10-29T19:17:41.062Z,99343.88
2023-10-29T19:20:45.584Z,99345.44
2023-10-29T19:23:50.330Z,99348.78
2023-10-29T19:26:54.821Z,99347.84
2023-10-29T19:29:59.070Z,99340.19
2023-10-29T19:33:05.146Z,99344.72
2023-10-29T19:36:14.058Z,99337.56
2023-10-29T19:39:19.092Z,99342.56
2023-10-29T19:42:23.734Z,99351.41
2023-10-29T19:45:28.729Z,99340.06
2023-10-29T19:48:33.038Z,99336.34
2023-10-29T19:51:38.763Z,99351.88
2023-10-29T19:54:42.945Z,99357.38
2023-10-29T19:57:49.900Z,99356.09
2023-10-29T20:01:02.801Z,99336.97
2023-10-29T20:04:07.371Z,99337.09
2023-10-29T20:07:12.153Z,99338.75
2023-10-29T20:10:17.136Z,99334.19
2023-10-29T20:13:22.130Z,99340.44
2023-10-29T20:16:26.909Z,99329.19
2023-10-29T20:19:30.831Z,99328.69
2023-10-29T20:22:35.295Z,99329.91
2023-10-29T20:25:39.665Z,99332.28
2023-10-29T20:28:44.645Z,99341.25
2023-10-29T20:31:49.179Z,99337.31
2023-10-29T20:34:54.932Z,99333.25
2023-10-29T20:37:59.113Z,99332.28
2023-10-29T20:41:09.821Z,99338.50
2023-10-29T20:44:14.204Z,99339.59
2023-10-29T20:47:19.081Z,99344.72
2023-10-29T20:50:23.657Z,99347.94
2023-10-29T20:53:28.692Z,99349.72
2023-10-29T20:56:33.002Z,99362.88
2023-10-29T20:59:37.718Z,99364.31
2023-10-29T21:02:42.038Z,99364.78
2023-10-29T21:05:47.345Z,99362.16
2023-10-29T21:08:52.434Z,99357.88
2023-10-29T21:11:57.302Z,99355.84
2023-10-29T21:15:01.399Z,99360.75
2023-10-29T21:18:05.965Z,99361.47
2023-10-29T21:21:10.409Z,99369.59
2023-10-29T21:24:15.284Z,99364.09
2023-10-29T21:27:20.259Z,99360.50
2023-10-29T21:30:24.981Z,99361.22
2023-10-29T21:33:30.086Z,99361.09
2023-10-29T21:36:36.991Z,99358.94
2023-10-29T21:39:41.380Z,99352.59
2023-10-29T21:42:45.688Z,99355.50
2023-10-29T21:45:50.036Z,99344.22
2023-10-29T21:48:54.532Z,99347.84
2023-10-29T21:51:59.040Z,99341.97
2023-10-29T21:55:03.249Z,99337.56
2023-10-29T21:58:11.132Z,99342.22
2023-10-29T22:01:23.164Z,99347.09
2023-10-29T22:04:31.401Z,99330.84
2023-10-29T22:07:36.001Z,99327.97
2023-10-29T22:10:40.416Z,99338.50
2023-10-29T22:13:45.300Z,99336.59
2023-10-29T22:16:49.814Z,99340.19
2023-10-29T22:19:54.444Z,99336.00
2023-10-29T22:22:58.905Z,99346.38
2023-10-29T22:26:04.989Z,99344.59
2023-10-29T22:29:09.574Z,99342.09
2023-10-29T22:32:15.849Z,99350.22
2023-10-29T22:35:20.540Z,99344.22
2023-10-29T22:38:25.638Z,99354.97
2023-10-29T22:41:31.482Z,99348.31
2023-10-29T22:44:36.032Z,99355.25
2023-10-29T22:47:40.333Z,99349.25
2023-10-29T22:50:44.723Z,99360.50
2023-10-29T22:53:49.438Z,99359.75
2023-10-29T22:56:53.839Z,99363.13
2023-10-29T22:59:58.302Z,99356.06
2023-10-29T23:03:02.648Z,99363.84
2023-10-29T23:06:08.115Z,99370.75
2023-10-29T23:09:13.247Z,99368.75
2023-10-29T23:12:17.826Z,99382.50
2023-10-29T23:15:23.272Z,99380.81
2023-10-29T23:18:28.259Z,99391.09
2023-10-29T23:21:32.396Z,99383.91
2023-10-29T23:24:36.773Z,99382.03
2023-10-29T23:27:42.928Z,99384.53
2023-10-29T23:30:47.659Z,99385.38
2023-10-29T23:33:52.422Z,99388.94
2023-10-29T23:36:56.708Z,99394.44
2023-10-29T23:40:01.017Z,99398.50
2023-10-29T23:43:05.104Z,99408.09
2023-10-29T23:46:09.939Z,99397.69
2023-10-29T23:49:15.346Z,99397.56
2023-10-29T23:52:19.636Z,99408.19
2023-10-29T23:55:24.471Z,99409.97
2023-10-29T23:58:28.507Z,99417.97
